Terminal Aerodrome Forecast
Issued by NWS

Home | Current Version | Previous Version | Text Only | Print | Product List | Glossary On
Versions: 1 2 3 4 5 6 7 8 9 10 11 12 13 14 15 16
000
FTUS45 KVEF 020520
TAFVGT
TAF
KVGT 020520Z 0206/0306 20008KT P6SM SCT250
     FM020800 VRB06KT P6SM SCT250
     FM021800 14008G16KT P6SM SCT250
     FM022100 18016G24KT P6SM SCT120 SCT250
     FM030200 VRB05KT P6SM FEW250=

USA.gov is the U.S. government's official web portal to all federal, state and local government web resources and services.